sensor_id;sensor_type;location;lat;lon;timestamp;P1;durP1;ratioP1;P2;durP2;ratioP2
18526;SDS011;9393;42.158;24.748;2022-07-01T00:00:18;7.07;;;3.25;;
18526;SDS011;9393;42.158;24.748;2022-07-01T00:03:22;4.25;;;2.90;;
18526;SDS011;9393;42.158;24.748;2022-07-01T00:06:26;9.45;;;3.50;;
18526;SDS011;9393;42.158;24.748;2022-07-01T00:09:29;17.77;;;3.63;;
18526;SDS011;9393;42.158;24.748;2022-07-01T00:12:33;6.95;;;3.33;;
18526;SDS011;9393;42.158;24.748;2022-07-01T00:15:38;9.32;;;2.92;;
18526;SDS011;9393;42.158;24.748;2022-07-01T00:18:41;9.85;;;3.33;;
18526;SDS011;9393;42.158;24.748;2022-07-01T00:21:45;6.80;;;3.10;;
18526;SDS011;9393;42.158;24.748;2022-07-01T00:24:48;7.03;;;3.33;;
18526;SDS011;9393;42.158;24.748;2022-07-01T00:27:52;7.38;;;3.60;;
18526;SDS011;9393;42.158;24.748;2022-07-01T00:30:57;5.53;;;3.50;;
18526;SDS011;9393;42.158;24.748;2022-07-01T00:34:00;9.77;;;3.55;;
18526;SDS011;9393;42.158;24.748;2022-07-01T00:37:04;11.13;;;4.55;;
18526;SDS011;9393;42.158;24.748;2022-07-01T00:40:08;8.25;;;4.28;;
18526;SDS011;9393;42.158;24.748;2022-07-01T00:43:12;7.53;;;3.60;;
18526;SDS011;9393;42.158;24.748;2022-07-01T00:46:17;9.68;;;3.50;;
18526;SDS011;9393;42.158;24.748;2022-07-01T00:49:23;6.97;;;3.83;;
18526;SDS011;9393;42.158;24.748;2022-07-01T00:52:28;9.45;;;4.10;;
18526;SDS011;9393;42.158;24.748;2022-07-01T00:55:32;6.75;;;3.97;;
18526;SDS011;9393;42.158;24.748;2022-07-01T00:58:35;8.18;;;3.42;;
18526;SDS011;9393;42.158;24.748;2022-07-01T01:01:40;6.60;;;4.15;;
18526;SDS011;9393;42.158;24.748;2022-07-01T01:04:44;4.78;;;4.28;;
18526;SDS011;9393;42.158;24.748;2022-07-01T01:07:47;8.55;;;4.25;;
18526;SDS011;9393;42.158;24.748;2022-07-01T01:10:52;10.75;;;4.30;;
18526;SDS011;9393;42.158;24.748;2022-07-01T01:13:56;7.40;;;4.00;;
18526;SDS011;9393;42.158;24.748;2022-07-01T01:17:00;8.77;;;4.25;;
18526;SDS011;9393;42.158;24.748;2022-07-01T01:20:04;6.57;;;4.53;;
18526;SDS011;9393;42.158;24.748;2022-07-01T01:23:10;7.38;;;3.90;;
18526;SDS011;9393;42.158;24.748;2022-07-01T01:26:17;7.00;;;4.22;;
18526;SDS011;9393;42.158;24.748;2022-07-01T01:29:21;9.30;;;4.35;;
18526;SDS011;9393;42.158;24.748;2022-07-01T01:32:25;7.07;;;4.07;;
18526;SDS011;9393;42.158;24.748;2022-07-01T01:35:28;8.52;;;3.95;;
18526;SDS011;9393;42.158;24.748;2022-07-01T01:38:35;10.45;;;4.28;;
18526;SDS011;9393;42.158;24.748;2022-07-01T01:41:39;7.85;;;4.40;;
18526;SDS011;9393;42.158;24.748;2022-07-01T01:44:42;8.00;;;4.70;;
18526;SDS011;9393;42.158;24.748;2022-07-01T01:47:46;10.70;;;4.50;;
18526;SDS011;9393;42.158;24.748;2022-07-01T01:50:49;7.97;;;4.30;;
18526;SDS011;9393;42.158;24.748;2022-07-01T01:53:54;8.40;;;5.20;;
18526;SDS011;9393;42.158;24.748;2022-07-01T01:56:58;7.85;;;4.60;;
18526;SDS011;9393;42.158;24.748;2022-07-01T02:00:01;8.75;;;5.00;;
18526;SDS011;9393;42.158;24.748;2022-07-01T02:03:11;11.25;;;4.90;;
18526;SDS011;9393;42.158;24.748;2022-07-01T02:06:16;10.20;;;5.72;;
18526;SDS011;9393;42.158;24.748;2022-07-01T02:09:21;10.00;;;5.20;;
18526;SDS011;9393;42.158;24.748;2022-07-01T02:12:25;11.50;;;5.85;;
18526;SDS011;9393;42.158;24.748;2022-07-01T02:15:29;13.43;;;5.82;;
18526;SDS011;9393;42.158;24.748;2022-07-01T02:18:32;9.07;;;5.57;;
18526;SDS011;9393;42.158;24.748;2022-07-01T02:21:35;11.57;;;6.63;;
18526;SDS011;9393;42.158;24.748;2022-07-01T02:24:40;9.38;;;5.93;;
18526;SDS011;9393;42.158;24.748;2022-07-01T02:27:45;11.15;;;6.55;;
18526;SDS011;9393;42.158;24.748;2022-07-01T02:30:48;12.13;;;6.88;;
18526;SDS011;9393;42.158;24.748;2022-07-01T02:33:52;11.32;;;5.93;;
18526;SDS011;9393;42.158;24.748;2022-07-01T02:36:56;11.80;;;6.25;;
18526;SDS011;9393;42.158;24.748;2022-07-01T02:40:00;12.68;;;6.18;;
18526;SDS011;9393;42.158;24.748;2022-07-01T02:43:04;10.55;;;6.07;;
18526;SDS011;9393;42.158;24.748;2022-07-01T02:46:08;11.40;;;5.70;;
18526;SDS011;9393;42.158;24.748;2022-07-01T02:49:12;7.47;;;5.45;;
18526;SDS011;9393;42.158;24.748;2022-07-01T02:52:16;11.20;;;5.72;;
18526;SDS011;9393;42.158;24.748;2022-07-01T02:55:21;9.70;;;5.22;;
18526;SDS011;9393;42.158;24.748;2022-07-01T02:58:25;9.15;;;5.72;;
18526;SDS011;9393;42.158;24.748;2022-07-01T03:01:28;7.00;;;5.18;;
18526;SDS011;9393;42.158;24.748;2022-07-01T03:04:32;12.27;;;5.68;;
18526;SDS011;9393;42.158;24.748;2022-07-01T03:07:36;7.38;;;5.63;;
18526;SDS011;9393;42.158;24.748;2022-07-01T03:10:41;9.10;;;5.35;;
18526;SDS011;9393;42.158;24.748;2022-07-01T03:13:44;7.85;;;5.68;;
18526;SDS011;9393;42.158;24.748;2022-07-01T03:16:48;7.90;;;4.93;;
18526;SDS011;9393;42.158;24.748;2022-07-01T03:19:51;8.65;;;4.80;;
18526;SDS011;9393;42.158;24.748;2022-07-01T03:22:55;7.75;;;4.85;;
18526;SDS011;9393;42.158;24.748;2022-07-01T03:26:00;7.15;;;5.75;;
18526;SDS011;9393;42.158;24.748;2022-07-01T03:29:04;8.25;;;4.80;;
18526;SDS011;9393;42.158;24.748;2022-07-01T03:32:08;6.00;;;4.88;;
18526;SDS011;9393;42.158;24.748;2022-07-01T03:35:12;9.10;;;5.05;;
18526;SDS011;9393;42.158;24.748;2022-07-01T03:38:32;7.45;;;4.97;;
18526;SDS011;9393;42.158;24.748;2022-07-01T03:41:37;7.45;;;4.97;;
18526;SDS011;9393;42.158;24.748;2022-07-01T03:44:41;7.03;;;5.25;;
18526;SDS011;9393;42.158;24.748;2022-07-01T03:47:45;9.40;;;5.50;;
18526;SDS011;9393;42.158;24.748;2022-07-01T03:50:50;7.63;;;5.20;;
18526;SDS011;9393;42.158;24.748;2022-07-01T03:53:54;11.35;;;5.32;;
18526;SDS011;9393;42.158;24.748;2022-07-01T03:57:15;9.90;;;5.70;;
18526;SDS011;9393;42.158;24.748;2022-07-01T04:00:19;6.57;;;5.30;;
18526;SDS011;9393;42.158;24.748;2022-07-01T04:03:23;12.75;;;5.78;;
18526;SDS011;9393;42.158;24.748;2022-07-01T04:06:26;11.13;;;5.63;;
18526;SDS011;9393;42.158;24.748;2022-07-01T04:09:30;9.75;;;5.13;;
18526;SDS011;9393;42.158;24.748;2022-07-01T04:12:35;11.00;;;5.43;;
18526;SDS011;9393;42.158;24.748;2022-07-01T04:15:39;6.70;;;4.85;;
18526;SDS011;9393;42.158;24.748;2022-07-01T04:18:42;12.70;;;5.63;;
18526;SDS011;9393;42.158;24.748;2022-07-01T04:21:45;9.05;;;5.05;;
18526;SDS011;9393;42.158;24.748;2022-07-01T04:25:07;11.02;;;5.13;;
18526;SDS011;9393;42.158;24.748;2022-07-01T04:28:12;7.97;;;5.00;;
18526;SDS011;9393;42.158;24.748;2022-07-01T04:31:16;11.80;;;5.28;;
18526;SDS011;9393;42.158;24.748;2022-07-01T04:34:20;7.43;;;5.07;;
18526;SDS011;9393;42.158;24.748;2022-07-01T04:37:23;11.65;;;5.50;;
18526;SDS011;9393;42.158;24.748;2022-07-01T04:40:27;11.32;;;5.32;;
18526;SDS011;9393;42.158;24.748;2022-07-01T04:43:32;10.98;;;5.03;;
18526;SDS011;9393;42.158;24.748;2022-07-01T04:46:34;7.15;;;4.93;;
18526;SDS011;9393;42.158;24.748;2022-07-01T04:49:38;10.05;;;4.65;;
18526;SDS011;9393;42.158;24.748;2022-07-01T04:52:42;10.00;;;5.50;;
18526;SDS011;9393;42.158;24.748;2022-07-01T04:55:45;9.68;;;5.18;;
18526;SDS011;9393;42.158;24.748;2022-07-01T04:58:50;7.22;;;4.72;;
18526;SDS011;9393;42.158;24.748;2022-07-01T05:01:53;6.65;;;5.60;;
18526;SDS011;9393;42.158;24.748;2022-07-01T05:04:57;6.32;;;5.13;;
18526;SDS011;9393;42.158;24.748;2022-07-01T05:08:00;9.82;;;5.60;;
18526;SDS011;9393;42.158;24.748;2022-07-01T05:11:04;10.05;;;5.40;;
18526;SDS011;9393;42.158;24.748;2022-07-01T05:14:09;9.07;;;5.53;;
18526;SDS011;9393;42.158;24.748;2022-07-01T05:17:12;7.05;;;5.07;;
18526;SDS011;9393;42.158;24.748;2022-07-01T05:20:16;9.10;;;4.85;;
18526;SDS011;9393;42.158;24.748;2022-07-01T05:23:45;10.43;;;4.97;;
18526;SDS011;9393;42.158;24.748;2022-07-01T05:26:48;8.27;;;4.63;;
18526;SDS011;9393;42.158;24.748;2022-07-01T05:29:53;15.05;;;5.28;;
18526;SDS011;9393;42.158;24.748;2022-07-01T05:32:57;8.52;;;4.53;;
18526;SDS011;9393;42.158;24.748;2022-07-01T05:36:00;9.35;;;4.55;;
18526;SDS011;9393;42.158;24.748;2022-07-01T05:39:04;13.32;;;5.03;;
18526;SDS011;9393;42.158;24.748;2022-07-01T05:42:08;8.68;;;5.28;;
18526;SDS011;9393;42.158;24.748;2022-07-01T05:45:13;7.75;;;5.18;;
18526;SDS011;9393;42.158;24.748;2022-07-01T05:48:16;9.25;;;4.80;;
18526;SDS011;9393;42.158;24.748;2022-07-01T05:51:20;6.57;;;4.80;;
18526;SDS011;9393;42.158;24.748;2022-07-01T05:54:23;8.27;;;5.65;;
18526;SDS011;9393;42.158;24.748;2022-07-01T05:57:27;7.43;;;4.85;;
18526;SDS011;9393;42.158;24.748;2022-07-01T06:00:32;8.20;;;4.68;;
18526;SDS011;9393;42.158;24.748;2022-07-01T06:03:35;6.93;;;4.38;;
18526;SDS011;9393;42.158;24.748;2022-07-01T06:06:39;11.43;;;4.43;;
18526;SDS011;9393;42.158;24.748;2022-07-01T06:09:42;13.95;;;5.45;;
18526;SDS011;9393;42.158;24.748;2022-07-01T06:12:46;9.50;;;4.80;;
18526;SDS011;9393;42.158;24.748;2022-07-01T06:15:51;12.15;;;4.55;;
18526;SDS011;9393;42.158;24.748;2022-07-01T06:18:54;8.18;;;4.35;;
18526;SDS011;9393;42.158;24.748;2022-07-01T06:21:58;6.32;;;4.05;;
18526;SDS011;9393;42.158;24.748;2022-07-01T06:25:02;8.30;;;4.30;;
18526;SDS011;9393;42.158;24.748;2022-07-01T06:28:06;10.55;;;4.25;;
18526;SDS011;9393;42.158;24.748;2022-07-01T06:31:11;12.55;;;4.95;;
18526;SDS011;9393;42.158;24.748;2022-07-01T06:34:14;11.93;;;4.20;;
18526;SDS011;9393;42.158;24.748;2022-07-01T06:37:18;7.22;;;4.03;;
18526;SDS011;9393;42.158;24.748;2022-07-01T06:40:23;6.82;;;4.07;;
18526;SDS011;9393;42.158;24.748;2022-07-01T06:43:27;6.47;;;4.40;;
18526;SDS011;9393;42.158;24.748;2022-07-01T06:46:32;7.68;;;4.07;;
18526;SDS011;9393;42.158;24.748;2022-07-01T06:49:36;5.75;;;4.25;;
18526;SDS011;9393;42.158;24.748;2022-07-01T06:52:39;11.95;;;4.43;;
18526;SDS011;9393;42.158;24.748;2022-07-01T06:55:43;7.68;;;4.65;;
18526;SDS011;9393;42.158;24.748;2022-07-01T06:58:52;5.07;;;3.70;;
18526;SDS011;9393;42.158;24.748;2022-07-01T07:01:57;5.55;;;3.80;;
18526;SDS011;9393;42.158;24.748;2022-07-01T07:05:00;9.30;;;3.90;;
18526;SDS011;9393;42.158;24.748;2022-07-01T07:08:04;6.15;;;2.85;;
18526;SDS011;9393;42.158;24.748;2022-07-01T07:11:08;9.70;;;4.20;;
18526;SDS011;9393;42.158;24.748;2022-07-01T07:14:11;12.57;;;4.28;;
18526;SDS011;9393;42.158;24.748;2022-07-01T07:17:16;9.20;;;3.78;;
18526;SDS011;9393;42.158;24.748;2022-07-01T07:20:19;5.25;;;3.22;;
18526;SDS011;9393;42.158;24.748;2022-07-01T07:23:23;7.32;;;3.00;;
18526;SDS011;9393;42.158;24.748;2022-07-01T07:26:26;7.35;;;3.45;;
18526;SDS011;9393;42.158;24.748;2022-07-01T07:29:30;6.63;;;3.42;;
18526;SDS011;9393;42.158;24.748;2022-07-01T07:32:34;6.47;;;3.33;;
18526;SDS011;9393;42.158;24.748;2022-07-01T07:35:38;7.53;;;4.35;;
18526;SDS011;9393;42.158;24.748;2022-07-01T07:38:41;5.63;;;3.70;;
18526;SDS011;9393;42.158;24.748;2022-07-01T07:41:45;7.85;;;3.65;;
18526;SDS011;9393;42.158;24.748;2022-07-01T07:44:48;8.35;;;3.40;;
18526;SDS011;9393;42.158;24.748;2022-07-01T07:47:53;8.45;;;4.18;;
18526;SDS011;9393;42.158;24.748;2022-07-01T07:50:56;5.10;;;3.72;;
18526;SDS011;9393;42.158;24.748;2022-07-01T07:54:00;4.85;;;3.25;;
18526;SDS011;9393;42.158;24.748;2022-07-01T07:57:04;4.53;;;3.55;;
18526;SDS011;9393;42.158;24.748;2022-07-01T08:00:09;6.70;;;3.30;;
18526;SDS011;9393;42.158;24.748;2022-07-01T08:03:16;7.00;;;3.20;;
18526;SDS011;9393;42.158;24.748;2022-07-01T08:06:19;8.20;;;3.92;;
18526;SDS011;9393;42.158;24.748;2022-07-01T08:09:23;4.25;;;2.90;;
18526;SDS011;9393;42.158;24.748;2022-07-01T08:12:27;8.18;;;3.63;;
18526;SDS011;9393;42.158;24.748;2022-07-01T08:15:30;12.57;;;3.20;;
18526;SDS011;9393;42.158;24.748;2022-07-01T08:18:36;8.48;;;3.00;;
18526;SDS011;9393;42.158;24.748;2022-07-01T08:21:40;5.35;;;3.03;;
18526;SDS011;9393;42.158;24.748;2022-07-01T08:24:43;4.97;;;3.58;;
18526;SDS011;9393;42.158;24.748;2022-07-01T08:27:46;6.60;;;3.45;;
18526;SDS011;9393;42.158;24.748;2022-07-01T08:30:50;7.80;;;3.30;;
18526;SDS011;9393;42.158;24.748;2022-07-01T08:33:55;4.70;;;3.05;;
18526;SDS011;9393;42.158;24.748;2022-07-01T08:36:58;5.25;;;3.20;;
18526;SDS011;9393;42.158;24.748;2022-07-01T08:40:02;5.50;;;3.22;;
18526;SDS011;9393;42.158;24.748;2022-07-01T08:43:06;7.45;;;3.50;;
18526;SDS011;9393;42.158;24.748;2022-07-01T08:46:10;7.68;;;3.00;;
18526;SDS011;9393;42.158;24.748;2022-07-01T08:49:14;5.80;;;3.25;;
18526;SDS011;9393;42.158;24.748;2022-07-01T08:52:19;10.25;;;3.35;;
18526;SDS011;9393;42.158;24.748;2022-07-01T08:55:23;4.72;;;3.15;;
18526;SDS011;9393;42.158;24.748;2022-07-01T08:58:27;8.32;;;3.20;;
18526;SDS011;9393;42.158;24.748;2022-07-01T09:01:31;7.15;;;3.30;;
18526;SDS011;9393;42.158;24.748;2022-07-01T09:04:36;6.53;;;3.30;;
18526;SDS011;9393;42.158;24.748;2022-07-01T09:07:40;9.27;;;3.17;;
18526;SDS011;9393;42.158;24.748;2022-07-01T09:10:50;5.53;;;3.20;;
18526;SDS011;9393;42.158;24.748;2022-07-01T09:17:17;3.97;;;2.83;;
18526;SDS011;9393;42.158;24.748;2022-07-01T09:20:27;5.72;;;4.25;;
18526;SDS011;9393;42.158;24.748;2022-07-01T09:23:32;4.18;;;2.92;;
18526;SDS011;9393;42.158;24.748;2022-07-01T09:26:36;9.60;;;3.28;;
18526;SDS011;9393;42.158;24.748;2022-07-01T09:29:42;6.82;;;3.58;;
18526;SDS011;9393;42.158;24.748;2022-07-01T09:33:03;4.93;;;3.20;;
18526;SDS011;9393;42.158;24.748;2022-07-01T09:36:09;5.07;;;3.00;;
18526;SDS011;9393;42.158;24.748;2022-07-01T09:39:18;7.85;;;4.28;;
18526;SDS011;9393;42.158;24.748;2022-07-01T09:42:43;10.38;;;3.80;;
18526;SDS011;9393;42.158;24.748;2022-07-01T09:45:48;8.13;;;3.60;;
18526;SDS011;9393;42.158;24.748;2022-07-01T09:48:53;3.60;;;3.20;;
18526;SDS011;9393;42.158;24.748;2022-07-01T09:51:58;9.55;;;3.58;;
18526;SDS011;9393;42.158;24.748;2022-07-01T09:55:01;5.60;;;3.47;;
18526;SDS011;9393;42.158;24.748;2022-07-01T09:58:05;9.13;;;4.53;;
18526;SDS011;9393;42.158;24.748;2022-07-01T10:01:09;6.80;;;3.72;;
18526;SDS011;9393;42.158;24.748;2022-07-01T10:04:13;6.38;;;3.60;;
18526;SDS011;9393;42.158;24.748;2022-07-01T10:07:25;4.20;;;3.30;;
18526;SDS011;9393;42.158;24.748;2022-07-01T10:10:41;6.78;;;3.95;;
18526;SDS011;9393;42.158;24.748;2022-07-01T10:13:48;4.90;;;3.30;;
18526;SDS011;9393;42.158;24.748;2022-07-01T10:16:54;8.00;;;3.28;;
18526;SDS011;9393;42.158;24.748;2022-07-01T10:20:05;5.75;;;3.25;;
18526;SDS011;9393;42.158;24.748;2022-07-01T10:23:12;11.10;;;3.60;;
18526;SDS011;9393;42.158;24.748;2022-07-01T10:26:15;9.07;;;3.70;;
18526;SDS011;9393;42.158;24.748;2022-07-01T10:29:26;6.82;;;3.40;;
18526;SDS011;9393;42.158;24.748;2022-07-01T10:32:34;4.68;;;3.38;;
18526;SDS011;9393;42.158;24.748;2022-07-01T10:36:05;10.98;;;3.65;;
18526;SDS011;9393;42.158;24.748;2022-07-01T10:39:12;5.97;;;3.30;;
18526;SDS011;9393;42.158;24.748;2022-07-01T10:42:18;7.90;;;3.50;;
18526;SDS011;9393;42.158;24.748;2022-07-01T10:45:24;10.05;;;3.85;;
18526;SDS011;9393;42.158;24.748;2022-07-01T10:48:30;11.25;;;4.00;;
18526;SDS011;9393;42.158;24.748;2022-07-01T10:51:42;4.47;;;3.20;;
18526;SDS011;9393;42.158;24.748;2022-07-01T10:54:50;8.27;;;3.45;;
18526;SDS011;9393;42.158;24.748;2022-07-01T10:57:57;9.73;;;3.72;;
18526;SDS011;9393;42.158;24.748;2022-07-01T11:01:01;5.80;;;3.60;;
18526;SDS011;9393;42.158;24.748;2022-07-01T11:04:06;6.72;;;3.95;;
18526;SDS011;9393;42.158;24.748;2022-07-01T11:07:09;10.38;;;3.92;;
18526;SDS011;9393;42.158;24.748;2022-07-01T11:10:15;7.20;;;3.75;;
18526;SDS011;9393;42.158;24.748;2022-07-01T11:13:20;9.90;;;3.80;;
18526;SDS011;9393;42.158;24.748;2022-07-01T11:16:23;6.28;;;3.60;;
18526;SDS011;9393;42.158;24.748;2022-07-01T11:19:27;7.88;;;4.13;;
18526;SDS011;9393;42.158;24.748;2022-07-01T11:22:31;8.90;;;3.83;;
18526;SDS011;9393;42.158;24.748;2022-07-01T11:25:37;12.88;;;3.88;;
18526;SDS011;9393;42.158;24.748;2022-07-01T11:28:41;9.77;;;4.07;;
18526;SDS011;9393;42.158;24.748;2022-07-01T11:31:44;4.30;;;3.50;;
18526;SDS011;9393;42.158;24.748;2022-07-01T11:34:49;7.78;;;4.28;;
18526;SDS011;9393;42.158;24.748;2022-07-01T11:37:52;8.88;;;3.85;;
18526;SDS011;9393;42.158;24.748;2022-07-01T11:41:26;9.90;;;3.00;;
18526;SDS011;9393;42.158;24.748;2022-07-01T11:44:30;5.90;;;3.58;;
18526;SDS011;9393;42.158;24.748;2022-07-01T11:47:34;5.50;;;3.33;;
18526;SDS011;9393;42.158;24.748;2022-07-01T11:50:37;4.30;;;3.33;;
18526;SDS011;9393;42.158;24.748;2022-07-01T11:53:42;5.55;;;3.67;;
18526;SDS011;9393;42.158;24.748;2022-07-01T11:56:47;9.00;;;4.40;;
18526;SDS011;9393;42.158;24.748;2022-07-01T11:59:52;6.78;;;4.03;;
18526;SDS011;9393;42.158;24.748;2022-07-01T12:02:56;5.45;;;3.08;;
18526;SDS011;9393;42.158;24.748;2022-07-01T12:06:00;3.55;;;3.25;;
18526;SDS011;9393;42.158;24.748;2022-07-01T12:09:03;9.20;;;3.30;;
18526;SDS011;9393;42.158;24.748;2022-07-01T12:12:15;5.90;;;3.40;;
18526;SDS011;9393;42.158;24.748;2022-07-01T12:15:20;6.55;;;4.05;;
18526;SDS011;9393;42.158;24.748;2022-07-01T12:18:23;8.57;;;3.80;;
18526;SDS011;9393;42.158;24.748;2022-07-01T12:21:27;9.40;;;3.42;;
18526;SDS011;9393;42.158;24.748;2022-07-01T12:24:31;7.50;;;3.47;;
18526;SDS011;9393;42.158;24.748;2022-07-01T12:27:36;8.25;;;3.30;;
18526;SDS011;9393;42.158;24.748;2022-07-01T12:30:42;5.07;;;3.17;;
18526;SDS011;9393;42.158;24.748;2022-07-01T12:33:48;6.68;;;3.60;;
18526;SDS011;9393;42.158;24.748;2022-07-01T12:36:54;5.75;;;3.55;;
18526;SDS011;9393;42.158;24.748;2022-07-01T12:39:58;7.25;;;3.97;;
18526;SDS011;9393;42.158;24.748;2022-07-01T12:43:04;7.38;;;3.90;;
18526;SDS011;9393;42.158;24.748;2022-07-01T12:46:27;4.97;;;3.67;;
18526;SDS011;9393;42.158;24.748;2022-07-01T12:49:31;16.27;;;3.55;;
18526;SDS011;9393;42.158;24.748;2022-07-01T12:52:36;6.25;;;3.63;;
18526;SDS011;9393;42.158;24.748;2022-07-01T12:55:42;5.57;;;3.40;;
18526;SDS011;9393;42.158;24.748;2022-07-01T12:58:47;4.45;;;3.15;;
18526;SDS011;9393;42.158;24.748;2022-07-01T13:01:51;8.57;;;4.18;;
18526;SDS011;9393;42.158;24.748;2022-07-01T13:04:55;11.50;;;5.78;;
18526;SDS011;9393;42.158;24.748;2022-07-01T13:07:59;6.55;;;3.80;;
18526;SDS011;9393;42.158;24.748;2022-07-01T13:11:02;8.25;;;4.70;;
18526;SDS011;9393;42.158;24.748;2022-07-01T13:14:09;6.93;;;3.38;;
18526;SDS011;9393;42.158;24.748;2022-07-01T13:17:12;10.30;;;3.78;;
18526;SDS011;9393;42.158;24.748;2022-07-01T13:20:15;6.03;;;3.78;;
18526;SDS011;9393;42.158;24.748;2022-07-01T13:23:19;7.88;;;3.97;;
18526;SDS011;9393;42.158;24.748;2022-07-01T13:26:22;6.72;;;3.75;;
18526;SDS011;9393;42.158;24.748;2022-07-01T13:29:27;5.38;;;3.80;;
18526;SDS011;9393;42.158;24.748;2022-07-01T13:32:31;7.00;;;3.60;;
18526;SDS011;9393;42.158;24.748;2022-07-01T13:35:34;5.25;;;3.42;;
18526;SDS011;9393;42.158;24.748;2022-07-01T13:38:38;6.18;;;3.60;;
18526;SDS011;9393;42.158;24.748;2022-07-01T13:41:42;8.48;;;4.25;;
18526;SDS011;9393;42.158;24.748;2022-07-01T13:44:46;5.63;;;4.25;;
18526;SDS011;9393;42.158;24.748;2022-07-01T13:47:52;11.93;;;4.97;;
18526;SDS011;9393;42.158;24.748;2022-07-01T13:50:55;5.20;;;3.47;;
18526;SDS011;9393;42.158;24.748;2022-07-01T13:53:59;7.72;;;3.55;;
18526;SDS011;9393;42.158;24.748;2022-07-01T13:57:03;6.10;;;3.65;;
18526;SDS011;9393;42.158;24.748;2022-07-01T14:00:08;5.40;;;3.80;;
18526;SDS011;9393;42.158;24.748;2022-07-01T14:03:13;7.28;;;3.50;;
18526;SDS011;9393;42.158;24.748;2022-07-01T14:06:16;5.70;;;3.55;;
18526;SDS011;9393;42.158;24.748;2022-07-01T14:09:20;8.68;;;4.07;;
18526;SDS011;9393;42.158;24.748;2022-07-01T14:12:24;6.75;;;4.25;;
18526;SDS011;9393;42.158;24.748;2022-07-01T14:15:30;7.28;;;3.75;;
18526;SDS011;9393;42.158;24.748;2022-07-01T14:18:33;6.97;;;3.70;;
18526;SDS011;9393;42.158;24.748;2022-07-01T14:21:37;6.38;;;3.70;;
18526;SDS011;9393;42.158;24.748;2022-07-01T14:24:41;5.93;;;3.28;;
18526;SDS011;9393;42.158;24.748;2022-07-01T14:27:44;7.35;;;3.70;;
18526;SDS011;9393;42.158;24.748;2022-07-01T14:30:49;7.97;;;3.40;;
18526;SDS011;9393;42.158;24.748;2022-07-01T14:33:53;5.68;;;4.00;;
18526;SDS011;9393;42.158;24.748;2022-07-01T14:36:56;10.50;;;4.05;;
18526;SDS011;9393;42.158;24.748;2022-07-01T14:40:00;7.28;;;4.45;;
18526;SDS011;9393;42.158;24.748;2022-07-01T14:43:03;5.60;;;3.42;;
18526;SDS011;9393;42.158;24.748;2022-07-01T14:46:08;7.32;;;4.10;;
18526;SDS011;9393;42.158;24.748;2022-07-01T14:49:16;6.78;;;3.90;;
18526;SDS011;9393;42.158;24.748;2022-07-01T14:52:19;6.13;;;3.92;;
18526;SDS011;9393;42.158;24.748;2022-07-01T14:55:26;8.40;;;4.10;;
18526;SDS011;9393;42.158;24.748;2022-07-01T14:58:31;9.77;;;3.90;;
18526;SDS011;9393;42.158;24.748;2022-07-01T15:01:36;5.90;;;3.90;;
18526;SDS011;9393;42.158;24.748;2022-07-01T15:04:40;6.88;;;3.65;;
18526;SDS011;9393;42.158;24.748;2022-07-01T15:07:44;6.07;;;3.72;;
18526;SDS011;9393;42.158;24.748;2022-07-01T15:10:47;6.88;;;3.40;;
18526;SDS011;9393;42.158;24.748;2022-07-01T15:13:51;5.68;;;3.80;;
18526;SDS011;9393;42.158;24.748;2022-07-01T15:16:56;7.10;;;4.15;;
18526;SDS011;9393;42.158;24.748;2022-07-01T15:20:00;3.88;;;3.17;;
18526;SDS011;9393;42.158;24.748;2022-07-01T15:23:04;5.53;;;3.63;;
18526;SDS011;9393;42.158;24.748;2022-07-01T15:26:07;5.65;;;3.58;;
18526;SDS011;9393;42.158;24.748;2022-07-01T15:29:10;7.82;;;3.60;;
18526;SDS011;9393;42.158;24.748;2022-07-01T15:32:16;6.20;;;3.63;;
18526;SDS011;9393;42.158;24.748;2022-07-01T15:35:20;4.57;;;3.50;;
18526;SDS011;9393;42.158;24.748;2022-07-01T15:38:24;5.55;;;3.72;;
18526;SDS011;9393;42.158;24.748;2022-07-01T15:41:27;9.63;;;4.25;;
18526;SDS011;9393;42.158;24.748;2022-07-01T15:44:31;7.28;;;3.88;;
18526;SDS011;9393;42.158;24.748;2022-07-01T15:47:36;7.60;;;3.50;;
18526;SDS011;9393;42.158;24.748;2022-07-01T15:50:58;5.82;;;3.78;;
18526;SDS011;9393;42.158;24.748;2022-07-01T15:54:01;5.35;;;3.88;;
18526;SDS011;9393;42.158;24.748;2022-07-01T15:57:05;5.88;;;3.50;;
18526;SDS011;9393;42.158;24.748;2022-07-01T16:00:09;5.13;;;3.33;;
18526;SDS011;9393;42.158;24.748;2022-07-01T16:03:15;7.35;;;3.40;;
18526;SDS011;9393;42.158;24.748;2022-07-01T16:06:19;6.43;;;4.03;;
18526;SDS011;9393;42.158;24.748;2022-07-01T16:09:23;11.40;;;4.18;;
18526;SDS011;9393;42.158;24.748;2022-07-01T16:12:28;5.07;;;3.40;;
18526;SDS011;9393;42.158;24.748;2022-07-01T16:15:34;6.05;;;3.28;;
18526;SDS011;9393;42.158;24.748;2022-07-01T16:18:39;5.43;;;3.55;;
18526;SDS011;9393;42.158;24.748;2022-07-01T16:21:45;5.32;;;3.88;;
18526;SDS011;9393;42.158;24.748;2022-07-01T16:24:54;5.47;;;4.35;;
18526;SDS011;9393;42.158;24.748;2022-07-01T16:27:58;4.00;;;3.60;;
18526;SDS011;9393;42.158;24.748;2022-07-01T16:31:01;4.72;;;3.10;;
18526;SDS011;9393;42.158;24.748;2022-07-01T16:34:09;8.13;;;3.25;;
18526;SDS011;9393;42.158;24.748;2022-07-01T16:37:14;5.38;;;3.72;;
18526;SDS011;9393;42.158;24.748;2022-07-01T16:40:21;5.55;;;3.30;;
18526;SDS011;9393;42.158;24.748;2022-07-01T16:43:28;4.75;;;3.47;;
18526;SDS011;9393;42.158;24.748;2022-07-01T16:46:36;4.03;;;3.40;;
18526;SDS011;9393;42.158;24.748;2022-07-01T16:49:42;3.83;;;3.42;;
18526;SDS011;9393;42.158;24.748;2022-07-01T16:52:51;5.13;;;3.45;;
18526;SDS011;9393;42.158;24.748;2022-07-01T16:55:55;3.92;;;3.45;;
18526;SDS011;9393;42.158;24.748;2022-07-01T16:58:59;4.07;;;3.50;;
18526;SDS011;9393;42.158;24.748;2022-07-01T17:02:04;6.18;;;3.95;;
18526;SDS011;9393;42.158;24.748;2022-07-01T17:05:09;6.25;;;3.60;;
18526;SDS011;9393;42.158;24.748;2022-07-01T17:08:13;6.38;;;3.90;;
18526;SDS011;9393;42.158;24.748;2022-07-01T17:11:17;5.65;;;3.88;;
18526;SDS011;9393;42.158;24.748;2022-07-01T17:14:23;8.82;;;4.13;;
18526;SDS011;9393;42.158;24.748;2022-07-01T17:17:27;6.55;;;3.92;;
18526;SDS011;9393;42.158;24.748;2022-07-01T17:20:34;3.97;;;3.50;;
18526;SDS011;9393;42.158;24.748;2022-07-01T17:23:40;3.65;;;3.33;;
18526;SDS011;9393;42.158;24.748;2022-07-01T17:26:54;7.65;;;3.92;;
18526;SDS011;9393;42.158;24.748;2022-07-01T17:30:08;5.63;;;3.67;;
18526;SDS011;9393;42.158;24.748;2022-07-01T17:33:15;7.50;;;4.40;;
18526;SDS011;9393;42.158;24.748;2022-07-01T17:36:21;6.70;;;4.20;;
18526;SDS011;9393;42.158;24.748;2022-07-01T17:39:28;6.88;;;4.10;;
18526;SDS011;9393;42.158;24.748;2022-07-01T17:42:32;7.18;;;4.10;;
18526;SDS011;9393;42.158;24.748;2022-07-01T17:45:36;6.97;;;4.07;;
18526;SDS011;9393;42.158;24.748;2022-07-01T17:48:41;8.38;;;4.15;;
18526;SDS011;9393;42.158;24.748;2022-07-01T17:51:49;10.02;;;4.65;;
18526;SDS011;9393;42.158;24.748;2022-07-01T17:54:52;7.45;;;4.28;;
18526;SDS011;9393;42.158;24.748;2022-07-01T17:57:59;10.05;;;4.47;;
18526;SDS011;9393;42.158;24.748;2022-07-01T18:01:03;8.80;;;5.05;;
18526;SDS011;9393;42.158;24.748;2022-07-01T18:04:07;6.70;;;5.00;;
18526;SDS011;9393;42.158;24.748;2022-07-01T18:07:12;6.38;;;4.45;;
18526;SDS011;9393;42.158;24.748;2022-07-01T18:10:16;8.35;;;5.00;;
18526;SDS011;9393;42.158;24.748;2022-07-01T18:13:21;12.45;;;5.35;;
18526;SDS011;9393;42.158;24.748;2022-07-01T18:16:36;8.60;;;6.07;;
18526;SDS011;9393;42.158;24.748;2022-07-01T18:20:03;8.07;;;5.40;;
18526;SDS011;9393;42.158;24.748;2022-07-01T18:23:14;8.95;;;5.50;;
18526;SDS011;9393;42.158;24.748;2022-07-01T18:26:18;10.35;;;4.80;;
18526;SDS011;9393;42.158;24.748;2022-07-01T18:29:22;7.43;;;4.97;;
18526;SDS011;9393;42.158;24.748;2022-07-01T18:32:31;10.30;;;6.63;;
18526;SDS011;9393;42.158;24.748;2022-07-01T18:35:35;14.05;;;6.90;;